createdAt,value
2019-03-09T00:01:50.067Z,6.20
2019-03-09T00:04:20.567Z,6.10
2019-03-09T00:06:50.859Z,6.10
2019-03-09T00:09:21.627Z,6.10
2019-03-09T00:11:51.823Z,6.00
2019-03-09T00:14:22.276Z,6.00
2019-03-09T00:16:52.532Z,6.00
2019-03-09T00:19:22.777Z,6.00
2019-03-09T00:21:53.075Z,6.00
2019-03-09T00:24:45.264Z,6.00
2019-03-09T00:27:29.238Z,6.00
2019-03-09T00:30:16.306Z,6.10
2019-03-09T00:32:46.665Z,6.10
2019-03-09T00:35:16.948Z,6.10
2019-03-09T00:37:47.226Z,6.20
2019-03-09T00:40:17.448Z,6.20
2019-03-09T00:42:47.850Z,6.30
2019-03-09T00:45:18.129Z,6.30
2019-03-09T00:47:48.524Z,6.30
2019-03-09T00:50:18.805Z,6.30
2019-03-09T00:52:49.560Z,6.30
2019-03-09T00:55:19.918Z,6.30
2019-03-09T00:57:50.186Z,6.30
2019-03-09T01:00:21.111Z,6.30
2019-03-09T01:02:51.409Z,6.30
2019-03-09T01:05:22.754Z,6.30
2019-03-09T01:07:53.263Z,6.20
2019-03-09T01:10:23.511Z,6.20
2019-03-09T01:12:53.740Z,6.10
2019-03-09T01:15:24.365Z,6.00
2019-03-09T01:17:54.609Z,6.00
2019-03-09T01:20:24.901Z,6.00
2019-03-09T01:22:55.245Z,6.00
2019-03-09T01:25:26.608Z,6.00
2019-03-09T01:27:56.853Z,5.90
2019-03-09T01:30:27.404Z,5.80
2019-03-09T01:32:57.663Z,5.70
2019-03-09T01:35:28.161Z,5.70
2019-03-09T01:37:58.591Z,5.60
2019-03-09T01:40:28.974Z,5.60
2019-03-09T01:43:00.324Z,5.50
2019-03-09T01:45:30.707Z,5.50
2019-03-09T01:48:01.083Z,5.50
2019-03-09T01:50:31.263Z,5.50
2019-03-09T01:53:01.847Z,5.50
2019-03-09T01:55:32.139Z,5.40
2019-03-09T01:58:02.351Z,5.40
2019-03-09T02:00:32.541Z,5.50
2019-03-09T02:03:02.953Z,5.50
2019-03-09T02:05:33.192Z,5.40
2019-03-09T02:08:03.481Z,5.40
2019-03-09T02:10:34.882Z,5.40
2019-03-09T02:13:05.477Z,5.40
2019-03-09T02:15:35.922Z,5.40
2019-03-09T02:18:06.502Z,5.40
2019-03-09T02:20:36.860Z,5.40
2019-03-09T02:23:07.755Z,5.40
2019-03-09T02:25:38.090Z,5.40
2019-03-09T02:28:08.427Z,5.40
2019-03-09T02:30:40.991Z,5.40
2019-03-09T02:33:11.262Z,5.40
2019-03-09T02:35:41.478Z,5.40
2019-03-09T02:38:20.599Z,5.40
2019-03-09T02:40:50.833Z,5.40
2019-03-09T02:43:21.120Z,5.40
2019-03-09T02:45:51.390Z,5.40
2019-03-09T02:48:21.691Z,5.40
2019-03-09T02:50:57.709Z,5.40
2019-03-09T02:53:28.400Z,5.30
2019-03-09T02:55:58.646Z,5.30
2019-03-09T02:58:28.954Z,5.30
2019-03-09T03:01:18.140Z,5.20
2019-03-09T03:03:48.541Z,5.30
2019-03-09T03:06:19.033Z,5.30
2019-03-09T03:08:49.321Z,5.30
2019-03-09T03:11:19.511Z,5.40
2019-03-09T03:13:49.848Z,5.40
2019-03-09T03:16:20.088Z,5.50
2019-03-09T03:18:50.407Z,5.50
2019-03-09T03:21:20.605Z,5.50
2019-03-09T03:23:50.895Z,5.50
2019-03-09T03:26:21.076Z,5.50
2019-03-09T03:28:51.333Z,5.60
2019-03-09T03:31:21.595Z,5.50
2019-03-09T03:33:52.219Z,5.50
2019-03-09T03:36:22.478Z,5.50
2019-03-09T03:38:52.730Z,5.40
2019-03-09T03:41:23.018Z,5.40
2019-03-09T03:43:53.273Z,5.30
2019-03-09T03:46:23.566Z,5.30
2019-03-09T03:48:53.730Z,5.30
2019-03-09T03:51:24.099Z,5.30
2019-03-09T03:53:54.277Z,5.20
2019-03-09T03:56:24.821Z,5.20
2019-03-09T03:58:55.294Z,5.20
2019-03-09T04:01:25.850Z,5.20
2019-03-09T04:03:56.264Z,5.20
2019-03-09T04:06:26.959Z,5.20
2019-03-09T04:08:57.710Z,5.20
2019-03-09T04:11:28.278Z,5.20
2019-03-09T04:13:58.886Z,5.20
2019-03-09T04:16:29.089Z,5.10
2019-03-09T04:18:59.929Z,5.10
2019-03-09T04:21:30.118Z,5.00
2019-03-09T04:24:00.413Z,5.10
2019-03-09T04:26:30.979Z,5.10
2019-03-09T04:29:01.243Z,5.10
2019-03-09T04:31:31.540Z,5.10
2019-03-09T04:34:02.512Z,5.10
2019-03-09T04:36:32.767Z,5.10
2019-03-09T04:39:04.791Z,5.10
2019-03-09T04:41:36.445Z,5.10
2019-03-09T04:44:06.699Z,5.00
2019-03-09T04:46:36.920Z,5.00
2019-03-09T04:49:07.155Z,5.00
2019-03-09T04:51:37.464Z,5.00
2019-03-09T04:54:07.769Z,5.00
2019-03-09T04:56:38.050Z,5.00
2019-03-09T04:59:08.371Z,5.00
2019-03-09T05:01:38.685Z,5.10
2019-03-09T05:04:37.491Z,4.90
2019-03-09T05:07:07.817Z,4.90
2019-03-09T05:10:06.489Z,4.90
2019-03-09T05:12:36.756Z,4.90
2019-03-09T05:15:08.795Z,4.90
2019-03-09T05:17:39.076Z,4.90
2019-03-09T05:20:09.713Z,4.90
2019-03-09T05:22:39.990Z,4.90
2019-03-09T05:25:10.299Z,4.90
2019-03-09T05:27:40.613Z,5.00
2019-03-09T05:30:12.530Z,5.10
2019-03-09T05:32:42.776Z,5.20
2019-03-09T05:35:13.239Z,5.30
2019-03-09T05:37:43.580Z,5.30
2019-03-09T05:40:13.899Z,5.30
2019-03-09T05:42:44.154Z,5.30
2019-03-09T05:45:14.702Z,5.30
2019-03-09T05:47:44.888Z,5.40
2019-03-09T05:50:15.382Z,5.40
2019-03-09T05:52:46.939Z,5.40
2019-03-09T05:55:19.695Z,5.50
2019-03-09T05:57:50.024Z,5.40
2019-03-09T06:00:20.358Z,5.40
2019-03-09T06:02:50.652Z,5.40
2019-03-09T06:05:46.886Z,5.50
2019-03-09T06:08:17.240Z,5.60
2019-03-09T06:10:47.464Z,5.70
2019-03-09T06:13:17.766Z,5.80
2019-03-09T06:15:48.038Z,6.00
2019-03-09T06:18:18.352Z,6.00
2019-03-09T06:20:48.622Z,6.10
2019-03-09T06:23:18.948Z,6.10
2019-03-09T06:25:49.271Z,6.20
2019-03-09T06:28:19.543Z,6.20
2019-03-09T06:30:49.854Z,6.30
2019-03-09T06:33:27.974Z,6.30
2019-03-09T06:36:25.730Z,6.30
2019-03-09T06:39:07.240Z,6.30
2019-03-09T06:41:41.808Z,6.30
2019-03-09T06:44:12.254Z,6.50
2019-03-09T06:46:44.699Z,6.40
2019-03-09T06:49:15.173Z,6.50
2019-03-09T06:51:45.372Z,6.60
2019-03-09T06:54:16.954Z,6.60
2019-03-09T06:56:47.521Z,6.60
2019-03-09T06:59:18.020Z,6.60
2019-03-09T07:01:49.004Z,6.70
2019-03-09T07:04:19.304Z,6.80
2019-03-09T07:06:49.590Z,6.90
2019-03-09T07:09:19.904Z,6.90
2019-03-09T07:11:50.170Z,6.90
2019-03-09T07:14:56.595Z,6.80
2019-03-09T07:17:26.762Z,6.80
2019-03-09T07:19:57.133Z,6.70
2019-03-09T07:22:27.423Z,6.80
2019-03-09T07:24:57.708Z,6.90
2019-03-09T07:27:28.921Z,6.90
2019-03-09T07:29:59.352Z,7.00
2019-03-09T07:32:30.497Z,7.20
2019-03-09T07:35:00.666Z,7.50
2019-03-09T07:37:31.093Z,7.80
2019-03-09T07:40:01.575Z,7.80
2019-03-09T07:42:32.123Z,8.00
2019-03-09T07:45:02.675Z,8.20
2019-03-09T07:47:34.402Z,8.30
2019-03-09T07:50:06.179Z,8.30
2019-03-09T07:52:37.707Z,8.40
2019-03-09T07:55:10.625Z,8.40
2019-03-09T07:57:41.121Z,8.40
2019-03-09T08:00:16.461Z,8.50
2019-03-09T08:02:47.323Z,8.50
2019-03-09T08:05:17.625Z,8.60
2019-03-09T08:07:48.103Z,8.50
2019-03-09T08:10:19.015Z,8.40
2019-03-09T08:12:49.327Z,8.60
2019-03-09T08:15:19.771Z,9.00
2019-03-09T08:17:50.240Z,9.10
2019-03-09T08:20:20.567Z,9.40
2019-03-09T08:22:51.333Z,9.20
2019-03-09T08:25:21.661Z,9.00
2019-03-09T08:27:52.381Z,8.70
2019-03-09T08:30:23.851Z,8.50
2019-03-09T08:32:54.385Z,8.50
2019-03-09T08:35:25.293Z,8.60
2019-03-09T08:37:55.628Z,8.60
2019-03-09T08:40:25.888Z,8.50
2019-03-09T08:42:56.473Z,8.50
2019-03-09T08:45:26.719Z,8.50
2019-03-09T08:47:56.991Z,8.60
2019-03-09T08:50:27.466Z,8.50
2019-03-09T08:52:57.729Z,8.50
2019-03-09T08:55:28.135Z,8.60
2019-03-09T08:57:58.431Z,9.10
2019-03-09T09:00:30.851Z,9.10
2019-03-09T09:03:02.241Z,9.50
2019-03-09T09:05:32.527Z,9.40
2019-03-09T09:08:04.083Z,9.40
2019-03-09T09:10:34.606Z,9.20
2019-03-09T09:13:05.298Z,9.10
2019-03-09T09:15:35.550Z,9.00
2019-03-09T09:18:06.338Z,8.90
2019-03-09T09:20:36.583Z,8.90
2019-03-09T09:23:08.543Z,9.00
2019-03-09T09:25:38.733Z,9.00
2019-03-09T09:28:09.091Z,9.10
2019-03-09T09:30:39.318Z,9.20
2019-03-09T09:33:10.254Z,9.40
2019-03-09T09:35:40.486Z,9.60
2019-03-09T09:38:10.791Z,9.70
2019-03-09T09:40:41.062Z,9.80
2019-03-09T09:43:11.912Z,10.10
2019-03-09T09:45:42.157Z,10.20
2019-03-09T09:48:12.696Z,10.40
2019-03-09T09:50:42.958Z,10.40
2019-03-09T09:53:13.238Z,10.60
2019-03-09T09:55:43.634Z,10.60
2019-03-09T09:58:13.858Z,10.70
2019-03-09T10:00:44.134Z,10.80
2019-03-09T10:03:14.414Z,10.90
2019-03-09T10:05:44.663Z,10.90
2019-03-09T10:08:15.078Z,11.00
2019-03-09T10:10:45.350Z,11.10
2019-03-09T10:13:15.641Z,11.00
2019-03-09T10:15:45.915Z,10.90
2019-03-09T10:18:16.264Z,10.90
2019-03-09T10:20:46.545Z,10.80
2019-03-09T10:23:20.050Z,10.70
2019-03-09T10:25:50.654Z,10.80
2019-03-09T10:28:21.047Z,10.80
2019-03-09T10:30:51.526Z,10.70
2019-03-09T10:33:24.150Z,10.80
2019-03-09T10:35:54.144Z,10.80
2019-03-09T10:38:24.515Z,10.90
2019-03-09T10:40:55.023Z,11.10
2019-03-09T10:43:25.402Z,11.20
2019-03-09T10:45:55.738Z,11.30
2019-03-09T10:48:26.004Z,11.30
2019-03-09T10:50:56.321Z,11.50
2019-03-09T10:53:26.551Z,11.80
2019-03-09T10:55:58.519Z,12.00
2019-03-09T10:58:28.781Z,12.10
2019-03-09T11:00:59.315Z,12.10
2019-03-09T11:03:31.106Z,12.30
2019-03-09T11:06:01.682Z,12.30
2019-03-09T11:08:32.154Z,12.30
2019-03-09T11:11:02.522Z,12.10
2019-03-09T11:13:32.793Z,12.00
2019-03-09T11:16:03.081Z,12.10
2019-03-09T11:18:33.581Z,11.90
2019-03-09T11:21:03.862Z,11.90
2019-03-09T11:23:34.556Z,11.90
2019-03-09T11:26:05.169Z,11.90
2019-03-09T11:28:35.495Z,12.00
2019-03-09T11:31:06.427Z,12.10
2019-03-09T11:33:37.613Z,12.30
2019-03-09T11:36:09.131Z,12.30
2019-03-09T11:38:39.964Z,12.30
2019-03-09T11:41:18.826Z,12.30
2019-03-09T11:43:44.127Z,12.20
2019-03-09T11:46:14.499Z,12.10
2019-03-09T11:48:44.758Z,12.10
2019-03-09T11:51:15.137Z,12.10
2019-03-09T11:54:03.023Z,12.10
2019-03-09T11:59:27.820Z,11.80
2019-03-09T12:01:58.111Z,11.60
2019-03-09T12:04:28.578Z,11.80
2019-03-09T12:06:58.842Z,11.90
2019-03-09T12:09:32.764Z,12.00
2019-03-09T12:12:06.335Z,11.90
2019-03-09T12:14:36.631Z,11.90
2019-03-09T12:17:12.591Z,11.90
2019-03-09T12:19:38.852Z,11.90
2019-03-09T12:22:09.335Z,11.90
2019-03-09T12:24:39.734Z,11.90
2019-03-09T12:27:11.333Z,11.70
2019-03-09T12:29:41.590Z,11.60
2019-03-09T12:32:12.079Z,11.70
2019-03-09T12:34:42.628Z,11.70
2019-03-09T12:37:13.498Z,11.80
2019-03-09T12:39:44.367Z,11.70
2019-03-09T12:42:14.718Z,11.70
2019-03-09T12:44:44.955Z,11.30
2019-03-09T12:47:16.218Z,11.10
2019-03-09T12:49:46.484Z,10.40
2019-03-09T12:52:16.856Z,9.60
2019-03-09T12:54:47.377Z,9.20
2019-03-09T12:57:17.667Z,8.90
2019-03-09T12:59:48.003Z,8.80
2019-03-09T13:02:18.379Z,8.80
2019-03-09T13:04:49.255Z,8.60
2019-03-09T13:07:19.515Z,8.60
2019-03-09T13:09:50.071Z,8.60
2019-03-09T13:12:20.265Z,8.50
2019-03-09T13:14:50.551Z,8.40
2019-03-09T13:17:21.284Z,8.20
2019-03-09T13:19:51.530Z,8.00
2019-03-09T13:22:22.032Z,8.00
2019-03-09T13:24:52.278Z,7.80
2019-03-09T13:27:22.794Z,7.70
2019-03-09T13:29:53.046Z,7.60
2019-03-09T13:32:23.370Z,7.50
2019-03-09T13:34:54.167Z,7.30
2019-03-09T13:37:24.632Z,7.30
2019-03-09T13:39:54.961Z,7.40
2019-03-09T13:42:25.364Z,7.50
2019-03-09T13:44:56.085Z,7.50
2019-03-09T13:47:26.443Z,7.60
2019-03-09T13:49:56.723Z,7.40
2019-03-09T13:52:27.340Z,7.30
2019-03-09T13:54:57.594Z,7.10
2019-03-09T13:57:28.084Z,7.10
2019-03-09T13:59:58.348Z,7.20
2019-03-09T14:02:28.988Z,7.30
2019-03-09T14:04:59.226Z,7.40
2019-03-09T14:07:29.670Z,7.40
2019-03-09T14:10:00.373Z,7.50
2019-03-09T14:12:30.778Z,7.50
2019-03-09T14:15:01.162Z,7.60
2019-03-09T14:17:32.405Z,7.80
2019-03-09T14:20:02.772Z,7.80
2019-03-09T14:22:33.226Z,7.80
2019-03-09T14:25:03.757Z,7.80
2019-03-09T14:27:34.116Z,7.80
2019-03-09T14:30:05.390Z,7.90
2019-03-09T14:32:35.830Z,8.00
2019-03-09T14:35:12.411Z,8.10
2019-03-09T14:37:42.719Z,8.10
2019-03-09T14:40:13.794Z,8.20
2019-03-09T14:42:44.207Z,8.30
2019-03-09T14:45:16.308Z,8.50
2019-03-09T14:47:46.642Z,8.60
2019-03-09T14:50:16.841Z,8.50
2019-03-09T14:52:47.193Z,8.30
2019-03-09T14:55:17.601Z,8.00
2019-03-09T14:57:47.963Z,7.20
2019-03-09T15:00:20.188Z,5.90
2019-03-09T15:02:50.467Z,4.60
2019-03-09T15:05:20.771Z,3.90
2019-03-09T15:07:51.040Z,3.70
2019-03-09T15:10:21.511Z,3.70
2019-03-09T15:12:51.775Z,3.90
2019-03-09T15:15:22.099Z,4.00
2019-03-09T15:17:52.731Z,4.10
2019-03-09T15:20:23.144Z,4.30
2019-03-09T15:22:54.655Z,4.50
2019-03-09T15:25:24.956Z,4.70
2019-03-09T15:27:55.997Z,4.80
2019-03-09T15:30:26.256Z,4.90
2019-03-09T15:32:56.583Z,5.00
2019-03-09T15:35:26.883Z,5.10
2019-03-09T15:37:57.145Z,5.20
2019-03-09T15:40:27.458Z,5.30
2019-03-09T15:42:57.892Z,5.30
2019-03-09T15:45:28.185Z,5.50
2019-03-09T15:47:58.633Z,5.70
2019-03-09T15:50:28.961Z,5.70
2019-03-09T15:52:59.291Z,5.80
2019-03-09T15:55:29.600Z,5.80
2019-03-09T15:57:59.870Z,5.90
2019-03-09T16:00:30.257Z,5.80
2019-03-09T16:03:00.414Z,5.60
2019-03-09T16:05:30.739Z,5.40
2019-03-09T16:08:01.010Z,5.20
2019-03-09T16:10:31.819Z,4.70
2019-03-09T16:13:02.064Z,4.40
2019-03-09T16:15:33.753Z,4.40
2019-03-09T16:18:05.233Z,4.40
2019-03-09T16:20:35.555Z,4.50
2019-03-09T16:23:06.966Z,4.50
2019-03-09T16:25:39.953Z,4.60
2019-03-09T16:28:10.267Z,4.80
2019-03-09T16:30:40.501Z,4.80
2019-03-09T16:33:10.943Z,4.80
2019-03-09T16:35:41.189Z,4.70
2019-03-09T16:38:11.923Z,4.60
2019-03-09T16:40:43.041Z,4.60
2019-03-09T16:43:13.586Z,4.50
2019-03-09T16:45:44.303Z,4.50
2019-03-09T16:48:14.849Z,4.50
2019-03-09T16:50:45.196Z,4.60
2019-03-09T16:53:15.495Z,4.60
2019-03-09T16:55:52.381Z,4.50
2019-03-09T16:58:22.859Z,4.50
2019-03-09T17:00:53.340Z,4.50
2019-03-09T17:03:23.669Z,4.50
2019-03-09T17:05:53.962Z,4.60
2019-03-09T17:08:24.458Z,4.60
2019-03-09T17:10:55.336Z,4.60
2019-03-09T17:13:25.602Z,4.70
2019-03-09T17:15:56.969Z,4.70
2019-03-09T17:18:27.238Z,4.70
2019-03-09T17:20:57.500Z,4.80
2019-03-09T17:23:27.788Z,4.80
2019-03-09T17:25:58.139Z,4.80
2019-03-09T17:28:28.569Z,4.90
2019-03-09T17:31:00.094Z,4.90
2019-03-09T17:33:30.434Z,4.90
2019-03-09T17:36:01.172Z,4.90
2019-03-09T17:40:57.911Z,4.90
2019-03-09T17:43:28.176Z,4.80
2019-03-09T17:45:58.462Z,4.80
2019-03-09T17:48:29.333Z,4.90
2019-03-09T17:50:59.684Z,4.90
2019-03-09T17:53:29.936Z,5.00
2019-03-09T17:56:00.329Z,5.10
2019-03-09T17:58:30.662Z,5.10
2019-03-09T18:01:01.288Z,5.20
2019-03-09T18:03:32.928Z,5.10
2019-03-09T18:06:04.247Z,5.20
2019-03-09T18:08:34.744Z,5.10
2019-03-09T18:11:06.854Z,5.10
2019-03-09T18:13:37.106Z,5.20
2019-03-09T18:16:07.444Z,5.10
2019-03-09T18:18:37.619Z,5.20
2019-03-09T18:21:07.930Z,5.20
2019-03-09T18:23:38.392Z,5.20
2019-03-09T18:26:17.719Z,5.20
2019-03-09T18:28:51.517Z,5.30
2019-03-09T18:31:22.014Z,5.40
2019-03-09T18:33:52.347Z,5.40
2019-03-09T18:36:22.764Z,5.40
2019-03-09T18:38:53.292Z,5.40
2019-03-09T18:41:24.060Z,5.50
2019-03-09T18:43:54.639Z,5.50
2019-03-09T18:46:24.956Z,5.50
2019-03-09T18:48:55.423Z,5.50
2019-03-09T18:51:25.904Z,5.50
2019-03-09T18:53:56.415Z,5.60
2019-03-09T18:56:27.126Z,5.50
2019-03-09T18:58:58.704Z,5.50
2019-03-09T19:01:29.039Z,5.50
2019-03-09T19:03:59.531Z,5.50
2019-03-09T19:06:29.804Z,5.50
2019-03-09T19:09:00.661Z,5.50
2019-03-09T19:11:32.599Z,5.60
2019-03-09T19:14:02.899Z,5.60
2019-03-09T19:16:33.229Z,5.50
2019-03-09T19:19:03.517Z,5.50
2019-03-09T19:21:33.796Z,5.60
2019-03-09T19:24:04.315Z,5.60
2019-03-09T19:26:34.931Z,5.60
2019-03-09T19:29:05.369Z,5.60
2019-03-09T19:31:35.957Z,5.60
2019-03-09T19:34:06.216Z,5.60
2019-03-09T19:36:36.489Z,5.60
2019-03-09T19:39:07.903Z,5.60
2019-03-09T19:41:39.932Z,5.60
2019-03-09T19:44:11.405Z,5.60
2019-03-09T19:46:41.743Z,5.60
2019-03-09T19:49:12.053Z,5.70
2019-03-09T19:51:42.310Z,5.70
2019-03-09T19:54:12.988Z,5.70
2019-03-09T19:56:44.281Z,5.80
2019-03-09T19:59:15.401Z,5.80
2019-03-09T20:01:45.707Z,5.80
2019-03-09T20:04:16.107Z,5.90
2019-03-09T20:06:46.626Z,5.90
2019-03-09T20:09:16.982Z,5.90
2019-03-09T20:11:48.811Z,6.00
2019-03-09T20:14:19.249Z,6.10
2019-03-09T20:16:50.196Z,6.10
2019-03-09T20:19:20.531Z,6.20
2019-03-09T20:21:50.879Z,6.30
2019-03-09T20:24:21.622Z,6.30
2019-03-09T20:26:51.893Z,6.30
2019-03-09T20:29:22.400Z,6.40
2019-03-09T20:31:52.732Z,6.40
2019-03-09T20:34:23.334Z,6.50
2019-03-09T20:36:53.837Z,6.50
2019-03-09T20:39:24.881Z,6.60
2019-03-09T20:41:55.091Z,6.60
2019-03-09T20:44:25.577Z,6.60
2019-03-09T20:46:55.971Z,6.60
2019-03-09T20:49:27.298Z,6.60
2019-03-09T20:51:58.188Z,6.60
2019-03-09T20:54:28.845Z,6.60
2019-03-09T20:56:59.502Z,6.50
2019-03-09T20:59:29.936Z,6.40
2019-03-09T21:02:00.250Z,6.50
2019-03-09T21:04:30.584Z,6.50
2019-03-09T21:07:00.987Z,6.50
2019-03-09T21:09:31.350Z,6.50
2019-03-09T21:12:01.812Z,6.50
2019-03-09T21:14:33.781Z,6.50
2019-03-09T21:17:04.162Z,6.60
2019-03-09T21:19:34.760Z,6.70
2019-03-09T21:22:05.047Z,6.70
2019-03-09T21:24:35.790Z,6.70
2019-03-09T21:27:06.016Z,6.80
2019-03-09T21:29:36.498Z,6.80
2019-03-09T21:32:06.787Z,6.80
2019-03-09T21:34:37.094Z,6.70
2019-03-09T21:37:07.804Z,6.60
2019-03-09T21:39:38.398Z,6.60
2019-03-09T21:42:08.832Z,6.50
2019-03-09T21:44:39.057Z,6.50
2019-03-09T21:47:09.320Z,6.50
2019-03-09T21:49:39.698Z,6.50
2019-03-09T21:52:10.002Z,6.50
2019-03-09T21:54:40.338Z,6.50
2019-03-09T21:57:10.607Z,6.50
2019-03-09T21:59:40.920Z,6.50
2019-03-09T22:02:11.174Z,6.60
2019-03-09T22:04:41.513Z,6.60
2019-03-09T22:07:12.011Z,6.60
2019-03-09T22:09:42.300Z,6.60
2019-03-09T22:12:12.667Z,6.60
2019-03-09T22:14:42.995Z,6.50
2019-03-09T22:17:13.346Z,6.50
2019-03-09T22:19:43.626Z,6.50
2019-03-09T22:22:14.127Z,6.50
2019-03-09T22:24:44.394Z,6.50
2019-03-09T22:27:14.688Z,6.50
2019-03-09T22:29:44.994Z,6.50
2019-03-09T22:32:15.278Z,6.60
2019-03-09T22:34:45.748Z,6.60
2019-03-09T22:37:15.982Z,6.60
2019-03-09T22:39:46.269Z,6.60
2019-03-09T22:42:16.721Z,6.60
2019-03-09T22:44:46.956Z,6.60
2019-03-09T22:47:17.302Z,6.60
2019-03-09T22:49:47.578Z,6.70
2019-03-09T22:52:17.918Z,6.60
2019-03-09T22:54:48.306Z,6.70
2019-03-09T22:57:18.663Z,6.60
2019-03-09T22:59:49.854Z,6.60
2019-03-09T23:02:20.187Z,6.60
2019-03-09T23:04:50.494Z,6.60
2019-03-09T23:07:21.301Z,6.70
2019-03-09T23:09:51.632Z,6.60
2019-03-09T23:12:21.923Z,6.60
2019-03-09T23:14:52.303Z,6.60
2019-03-09T23:17:22.507Z,6.70
2019-03-09T23:19:52.810Z,6.70
2019-03-09T23:22:23.418Z,6.70
2019-03-09T23:24:53.648Z,6.70
2019-03-09T23:27:23.901Z,6.80
2019-03-09T23:29:55.013Z,6.90
2019-03-09T23:32:25.328Z,6.80
2019-03-09T23:34:55.550Z,6.80
2019-03-09T23:37:25.915Z,6.80
2019-03-09T23:39:56.835Z,6.90
2019-03-09T23:42:27.119Z,6.80
2019-03-09T23:44:57.577Z,6.70
2019-03-09T23:47:27.799Z,6.80
2019-03-09T23:49:58.399Z,6.70
2019-03-09T23:52:28.737Z,6.80
2019-03-09T23:54:59.533Z,6.80
2019-03-09T23:57:30.472Z,6.80
